createdAt,value
2023-01-21T00:01:04.100Z,95008.38
2023-01-21T00:03:34.251Z,95013.53
2023-01-21T00:06:02.019Z,95004.72
2023-01-21T00:08:29.765Z,95010.38
2023-01-21T00:10:57.381Z,95013.72
2023-01-21T00:13:25.095Z,95012.72
2023-01-21T00:15:55.238Z,95009.72
2023-01-21T00:18:22.910Z,95009.88
2023-01-21T00:20:51.859Z,95013.06
2023-01-21T00:23:19.666Z,95007.88
2023-01-21T00:25:47.240Z,95009.88
2023-01-21T00:28:14.899Z,95002.53
2023-01-21T00:30:42.612Z,95006.56
2023-01-21T00:33:10.335Z,95010.06
2023-01-21T00:35:37.900Z,95002.69
2023-01-21T00:38:06.834Z,95002.38
2023-01-21T00:40:34.400Z,95006.72
2023-01-21T00:43:02.088Z,95014.56
2023-01-21T00:45:29.729Z,95013.22
2023-01-21T00:47:57.335Z,95014.41
2023-01-21T00:50:24.906Z,95014.06
2023-01-21T00:52:52.693Z,95016.41
2023-01-21T00:55:21.711Z,95019.09
2023-01-21T00:57:49.385Z,95022.75
2023-01-21T01:00:18.632Z,95019.09
2023-01-21T01:02:46.886Z,95019.75
2023-01-21T01:05:14.900Z,95025.75
2023-01-21T01:07:43.436Z,95022.75
2023-01-21T01:10:12.139Z,95028.72
2023-01-21T01:12:41.169Z,95025.91
2023-01-21T01:15:09.487Z,95029.91
2023-01-21T01:17:37.145Z,95031.22
2023-01-21T01:20:05.439Z,95035.41
2023-01-21T01:22:33.041Z,95034.56
2023-01-21T01:25:00.650Z,95035.56
2023-01-21T01:27:28.211Z,95038.41
2023-01-21T01:29:57.156Z,95034.06
2023-01-21T01:32:24.734Z,95044.56
2023-01-21T01:34:52.354Z,95037.56
2023-01-21T01:37:19.939Z,95038.56
2023-01-21T01:39:47.571Z,95040.91
2023-01-21T01:42:15.705Z,95039.56
2023-01-21T01:44:59.318Z,95044.38
2023-01-21T01:47:31.050Z,95045.09
2023-01-21T01:50:00.047Z,95042.59
2023-01-21T01:52:28.582Z,95043.75
2023-01-21T01:54:58.065Z,95044.06
2023-01-21T01:57:30.607Z,95043.56
2023-01-21T02:00:01.991Z,95050.41
2023-01-21T02:02:29.693Z,95045.72
2023-01-21T02:05:00.439Z,95044.06
2023-01-21T02:07:30.423Z,95045.06
2023-01-21T02:09:58.084Z,95048.06
2023-01-21T02:12:26.096Z,95040.72
2023-01-21T02:14:53.730Z,95038.38
2023-01-21T02:17:32.923Z,95039.91
2023-01-21T02:20:35.460Z,95042.38
2023-01-21T02:23:06.836Z,95044.56
2023-01-21T02:26:05.294Z,95037.72
2023-01-21T02:28:48.604Z,95045.38
2023-01-21T02:31:33.939Z,95043.53
2023-01-21T02:34:16.204Z,95042.38
2023-01-21T02:36:52.982Z,95033.03
2023-01-21T02:39:27.777Z,95042.69
2023-01-21T02:42:01.801Z,95043.53
2023-01-21T02:44:34.902Z,95046.03
2023-01-21T02:47:08.037Z,95045.69
2023-01-21T02:49:39.478Z,95041.50
2023-01-21T02:52:07.048Z,95044.38
2023-01-21T02:54:53.044Z,95040.38
2023-01-21T02:57:40.207Z,95047.19
2023-01-21T03:00:12.599Z,95034.03
2023-01-21T03:03:16.579Z,95034.84
2023-01-21T03:06:08.035Z,95047.03
2023-01-21T03:08:42.175Z,95045.34
2023-01-21T03:11:14.321Z,95038.50
2023-01-21T03:14:01.103Z,95045.13
2023-01-21T03:16:49.552Z,95042.28
2023-01-21T03:19:18.435Z,95042.91
2023-01-21T03:21:48.213Z,95032.25
2023-01-21T03:24:15.984Z,95038.63
2023-01-21T03:26:45.684Z,95030.47
2023-01-21T03:29:16.245Z,95037.47
2023-01-21T03:31:45.238Z,95036.78
2023-01-21T03:34:14.755Z,95038.63
2023-01-21T03:36:46.452Z,95041.13
2023-01-21T03:39:19.951Z,95032.44
2023-01-21T03:41:48.236Z,95032.94
2023-01-21T03:44:15.786Z,95031.56
2023-01-21T03:46:49.206Z,95025.88
2023-01-21T03:49:19.549Z,95032.22
2023-01-21T03:51:51.587Z,95036.53
2023-01-21T03:54:20.587Z,95028.72
2023-01-21T03:56:48.159Z,95029.91
2023-01-21T03:59:15.840Z,95028.88
2023-01-21T04:01:43.676Z,95034.72
2023-01-21T04:04:11.661Z,95039.53
2023-01-21T04:06:39.268Z,95029.56
2023-01-21T04:09:07.569Z,95034.53
2023-01-21T04:11:36.543Z,95027.28
2023-01-21T04:14:04.150Z,95032.25
2023-01-21T04:16:31.760Z,95038.22
2023-01-21T04:18:59.366Z,95038.03
2023-01-21T04:21:27.090Z,95037.16
2023-01-21T04:23:55.239Z,95042.16
2023-01-21T04:26:22.851Z,95046.81
2023-01-21T04:28:51.777Z,95041.31
2023-01-21T04:31:19.436Z,95041.16
2023-01-21T04:33:47.046Z,95040.84
2023-01-21T04:36:14.665Z,95041.47
2023-01-21T04:38:42.415Z,95034.69
2023-01-21T04:41:09.973Z,95040.84
2023-01-21T04:43:37.606Z,95035.22
2023-01-21T04:46:06.979Z,95045.00
2023-01-21T04:48:34.598Z,95044.50
2023-01-21T04:51:02.428Z,95044.00
2023-01-21T04:53:30.115Z,95047.63
2023-01-21T04:55:57.845Z,95051.16
2023-01-21T04:58:26.579Z,95046.66
2023-01-21T05:00:55.338Z,95049.13
2023-01-21T05:03:24.419Z,95055.00
2023-01-21T05:05:51.990Z,95060.50
2023-01-21T05:08:19.623Z,95053.34
2023-01-21T05:10:47.200Z,95057.69
2023-01-21T05:13:14.880Z,95053.88
2023-01-21T05:15:42.507Z,95058.03
2023-01-21T05:18:10.138Z,95052.56
2023-01-21T05:20:39.098Z,95067.41
2023-01-21T05:23:06.691Z,95059.38
2023-01-21T05:25:34.264Z,95067.03
2023-01-21T05:28:01.844Z,95064.19
2023-01-21T05:30:29.521Z,95070.81
2023-01-21T05:32:57.438Z,95070.47
2023-01-21T05:35:25.795Z,95069.50
2023-01-21T05:37:54.795Z,95071.78
2023-01-21T05:40:22.630Z,95065.91
2023-01-21T05:42:50.201Z,95063.75
2023-01-21T05:45:18.012Z,95070.38
2023-01-21T05:47:45.646Z,95066.22
2023-01-21T05:50:13.736Z,95068.97
2023-01-21T05:52:41.342Z,95067.31
2023-01-21T05:55:10.772Z,95071.13
2023-01-21T05:57:38.382Z,95067.91
2023-01-21T06:00:07.138Z,95070.63
2023-01-21T06:02:34.794Z,95069.34
2023-01-21T06:05:02.411Z,95067.97
2023-01-21T06:07:30.035Z,95072.16
2023-01-21T06:09:57.643Z,95072.25
2023-01-21T06:12:26.624Z,95080.09
2023-01-21T06:14:54.347Z,95076.50
2023-01-21T06:17:21.986Z,95072.84
2023-01-21T06:19:49.521Z,95073.94
2023-01-21T06:22:17.566Z,95075.19
2023-01-21T06:24:45.525Z,95070.91
2023-01-21T06:27:13.329Z,95066.47
2023-01-21T06:29:42.276Z,95071.28
2023-01-21T06:32:09.883Z,95066.00
2023-01-21T06:34:37.557Z,95075.03
2023-01-21T06:37:05.144Z,95073.66
2023-01-21T06:39:32.786Z,95073.66
2023-01-21T06:42:00.527Z,95078.00
2023-01-21T06:44:28.143Z,95080.59
2023-01-21T06:47:01.136Z,95082.59
2023-01-21T06:49:29.206Z,95083.44
2023-01-21T06:51:56.894Z,95087.56
2023-01-21T06:54:24.488Z,95079.56
2023-01-21T06:56:52.081Z,95086.25
2023-01-21T06:59:19.660Z,95093.59
2023-01-21T07:01:47.326Z,95097.41
2023-01-21T07:04:16.435Z,95106.56
2023-01-21T07:06:44.010Z,95100.66
2023-01-21T07:09:12.029Z,95107.97
2023-01-21T07:11:39.614Z,95129.94
2023-01-21T07:14:07.209Z,95121.41
2023-01-21T07:16:34.793Z,95107.97
2023-01-21T07:19:02.387Z,95123.50
2023-01-21T07:21:31.342Z,95130.09
2023-01-21T07:24:00.461Z,95126.84
2023-01-21T07:26:28.085Z,95131.31
2023-01-21T07:28:55.660Z,95126.00
2023-01-21T07:31:23.414Z,95125.06
2023-01-21T07:33:51.077Z,95117.50
2023-01-21T07:36:18.649Z,95126.09
2023-01-21T07:38:47.666Z,95123.50
2023-01-21T07:41:15.331Z,95130.88
2023-01-21T07:43:42.915Z,95130.50
2023-01-21T07:46:10.514Z,95132.50
2023-01-21T07:48:38.182Z,95131.03
2023-01-21T07:51:06.217Z,95126.16
2023-01-21T07:53:33.830Z,95138.66
2023-01-21T07:56:05.779Z,95130.06
2023-01-21T07:58:33.283Z,95122.63
2023-01-21T08:01:00.849Z,95128.81
2023-01-21T08:03:28.435Z,95132.41
2023-01-21T08:05:56.000Z,95134.25
2023-01-21T08:08:23.702Z,95130.09
2023-01-21T08:10:52.749Z,95125.91
2023-01-21T08:13:21.967Z,95124.44
2023-01-21T08:15:51.060Z,95133.53
2023-01-21T08:18:18.822Z,95135.84
2023-01-21T08:20:46.573Z,95146.38
2023-01-21T08:23:14.255Z,95138.56
2023-01-21T08:25:42.011Z,95147.50
2023-01-21T08:28:09.584Z,95150.03
2023-01-21T08:30:38.588Z,95148.41
2023-01-21T08:33:06.560Z,95158.59
2023-01-21T08:35:34.854Z,95154.72
2023-01-21T08:38:02.578Z,95161.06
2023-01-21T08:40:30.302Z,95157.50
2023-01-21T08:43:01.563Z,95157.44
2023-01-21T08:45:29.429Z,95155.50
2023-01-21T08:47:58.432Z,95152.63
2023-01-21T08:50:26.089Z,95148.03
2023-01-21T08:52:54.052Z,95158.81
2023-01-21T08:55:24.917Z,95162.00
2023-01-21T08:57:53.470Z,95166.88
2023-01-21T09:00:22.212Z,95167.03
2023-01-21T09:02:51.601Z,95162.28
2023-01-21T09:05:21.033Z,95161.50
2023-01-21T09:07:48.650Z,95160.94
2023-01-21T09:10:37.402Z,95169.50
2023-01-21T09:13:06.021Z,95167.31
2023-01-21T09:15:37.668Z,95169.13
2023-01-21T09:18:05.399Z,95171.19
2023-01-21T09:20:34.451Z,95171.34
2023-01-21T09:23:02.116Z,95174.53
2023-01-21T09:25:29.698Z,95178.31
2023-01-21T09:27:57.302Z,95170.56
2023-01-21T09:30:24.942Z,95172.34
2023-01-21T09:32:52.534Z,95171.22
2023-01-21T09:35:20.175Z,95161.91
2023-01-21T09:37:49.107Z,95163.59
2023-01-21T09:40:17.951Z,95165.28
2023-01-21T09:42:47.258Z,95167.66
2023-01-21T09:45:16.381Z,95160.06
2023-01-21T09:47:46.144Z,95160.78
2023-01-21T09:50:16.607Z,95166.94
2023-01-21T09:52:45.817Z,95165.06
2023-01-21T09:55:17.764Z,95172.31
2023-01-21T09:58:08.961Z,95164.25
2023-01-21T10:00:38.388Z,95161.06
2023-01-21T10:03:15.999Z,95159.22
2023-01-21T10:06:19.461Z,95168.91
2023-01-21T10:09:40.871Z,95160.88
2023-01-21T10:12:23.224Z,95165.53
2023-01-21T10:15:05.843Z,95164.28
2023-01-21T10:17:47.522Z,95162.69
2023-01-21T10:20:18.449Z,95156.97
2023-01-21T10:22:50.612Z,95163.81
2023-01-21T10:25:21.508Z,95156.03
2023-01-21T10:27:50.667Z,95149.50
2023-01-21T10:30:25.327Z,95154.44
2023-01-21T10:32:55.582Z,95155.94
2023-01-21T10:35:31.573Z,95151.31
2023-01-21T10:38:05.980Z,95153.63
2023-01-21T10:40:45.616Z,95155.63
2023-01-21T10:43:21.159Z,95154.16
2023-01-21T10:45:56.058Z,95157.63
2023-01-21T10:48:29.727Z,95153.81
2023-01-21T10:51:02.030Z,95147.06
2023-01-21T10:53:34.562Z,95139.41
2023-01-21T10:56:10.190Z,95139.53
2023-01-21T10:58:42.968Z,95137.41
2023-01-21T11:01:17.730Z,95138.75
2023-01-21T11:03:47.509Z,95138.66
2023-01-21T11:06:17.457Z,95134.91
2023-01-21T11:08:47.008Z,95146.59
2023-01-21T11:11:16.085Z,95133.75
2023-01-21T11:13:45.488Z,95134.19
2023-01-21T11:16:13.411Z,95131.66
2023-01-21T11:18:42.676Z,95141.03
2023-01-21T11:21:18.630Z,95141.69
2023-01-21T11:23:54.528Z,95135.16
2023-01-21T11:26:25.680Z,95134.31
2023-01-21T11:29:08.623Z,95134.34
2023-01-21T11:31:37.257Z,95132.69
2023-01-21T11:34:06.225Z,95128.53
2023-01-21T11:36:34.237Z,95121.47
2023-01-21T11:39:03.988Z,95130.81
2023-01-21T11:41:32.203Z,95117.00
2023-01-21T11:44:11.591Z,95122.22
2023-01-21T11:46:41.069Z,95122.03
2023-01-21T11:49:33.270Z,95117.03
2023-01-21T11:52:16.233Z,95106.56
2023-01-21T11:54:44.506Z,95110.09
2023-01-21T11:57:26.597Z,95106.75
2023-01-21T11:59:57.818Z,95115.25
2023-01-21T12:02:30.114Z,95112.88
2023-01-21T12:05:00.777Z,95111.50
2023-01-21T12:07:31.540Z,95106.16
2023-01-21T12:10:06.779Z,95104.47
2023-01-21T12:12:44.031Z,95094.50
2023-01-21T12:15:23.193Z,95092.53
2023-01-21T12:17:55.787Z,95089.50
2023-01-21T12:20:29.453Z,95097.00
2023-01-21T12:23:08.065Z,95094.38
2023-01-21T12:25:41.891Z,95093.72
2023-01-21T12:28:24.393Z,95092.53
2023-01-21T12:30:59.345Z,95088.75
2023-01-21T12:33:41.715Z,95085.25
2023-01-21T12:36:12.901Z,95084.41
2023-01-21T12:38:43.629Z,95091.06
2023-01-21T12:41:15.554Z,95084.56
2023-01-21T12:43:43.867Z,95086.09
2023-01-21T12:46:17.590Z,95092.75
2023-01-21T12:48:49.489Z,95089.94
2023-01-21T12:51:22.365Z,95094.75
2023-01-21T12:53:54.444Z,95093.75
2023-01-21T12:56:27.338Z,95090.41
2023-01-21T12:58:58.065Z,95091.69
2023-01-21T13:01:42.716Z,95084.72
2023-01-21T13:04:22.480Z,95092.03
2023-01-21T13:06:54.617Z,95090.84
2023-01-21T13:09:30.795Z,95089.41
2023-01-21T13:12:01.263Z,95083.59
2023-01-21T13:14:32.410Z,95086.88
2023-01-21T13:17:04.650Z,95090.91
2023-01-21T13:19:33.557Z,95090.41
2023-01-21T13:22:05.861Z,95081.09
2023-01-21T13:24:36.053Z,95096.09
2023-01-21T13:27:10.494Z,95103.09
2023-01-21T13:29:45.481Z,95093.78
2023-01-21T13:32:25.879Z,95097.94
2023-01-21T13:34:58.754Z,95106.09
2023-01-21T13:37:32.408Z,95101.44
2023-01-21T13:40:23.528Z,95091.78
2023-01-21T13:42:56.926Z,95102.78
2023-01-21T13:45:34.873Z,95110.06
2023-01-21T13:48:20.158Z,95107.91
2023-01-21T13:51:09.584Z,95113.41
2023-01-21T13:53:49.612Z,95110.44
2023-01-21T13:56:29.436Z,95119.09
2023-01-21T13:58:59.844Z,95121.25
2023-01-21T14:01:30.769Z,95117.78
2023-01-21T14:04:04.274Z,95118.09
2023-01-21T14:06:35.927Z,95116.25
2023-01-21T14:09:06.015Z,95125.75
2023-01-21T14:11:36.793Z,95125.09
2023-01-21T14:14:47.771Z,95123.41
2023-01-21T14:17:28.563Z,95125.25
2023-01-21T14:20:14.482Z,95124.03
2023-01-21T14:22:58.020Z,95119.03
2023-01-21T14:25:34.205Z,95119.56
2023-01-21T14:28:08.514Z,95131.88
2023-01-21T14:30:41.426Z,95129.38
2023-01-21T14:33:11.046Z,95127.69
2023-01-21T14:35:43.542Z,95136.38
2023-01-21T14:38:17.596Z,95127.38
2023-01-21T14:40:47.049Z,95131.53
2023-01-21T14:43:20.513Z,95126.41
2023-01-21T14:45:55.658Z,95137.72
2023-01-21T14:48:31.176Z,95140.72
2023-01-21T14:51:13.098Z,95127.41
2023-01-21T14:53:46.796Z,95139.75
2023-01-21T14:56:20.957Z,95139.28
2023-01-21T14:58:51.398Z,95141.97
2023-01-21T15:01:35.186Z,95143.78
2023-01-21T15:04:07.525Z,95142.47
2023-01-21T15:06:40.319Z,95143.59
2023-01-21T15:09:09.404Z,95139.25
2023-01-21T15:11:38.411Z,95144.22
2023-01-21T15:14:13.739Z,95139.88
2023-01-21T15:16:42.537Z,95149.84
2023-01-21T15:19:24.290Z,95151.38
2023-01-21T15:22:15.989Z,95146.22
2023-01-21T15:25:02.662Z,95142.88
2023-01-21T15:27:32.908Z,95148.38
2023-01-21T15:30:28.239Z,95146.22
2023-01-21T15:32:56.296Z,95155.06
2023-01-21T15:35:26.214Z,95151.38
2023-01-21T15:38:09.641Z,95153.72
2023-01-21T15:40:39.273Z,95158.03
2023-01-21T15:43:15.404Z,95155.38
2023-01-21T15:45:48.672Z,95158.22
2023-01-21T15:48:41.263Z,95164.72
2023-01-21T15:51:20.694Z,95161.38
2023-01-21T15:54:02.239Z,95171.03
2023-01-21T15:56:42.569Z,95176.53
2023-01-21T15:59:23.047Z,95158.91
2023-01-21T16:02:04.425Z,95177.72
2023-01-21T16:04:35.740Z,95181.22
2023-01-21T16:07:14.080Z,95175.69
2023-01-21T16:09:52.266Z,95177.00
2023-01-21T16:12:24.807Z,95181.69
2023-01-21T16:15:01.130Z,95181.72
2023-01-21T16:17:59.953Z,95187.03
2023-01-21T16:20:36.977Z,95184.00
2023-01-21T16:23:07.613Z,95188.69
2023-01-21T16:25:55.110Z,95185.56
2023-01-21T16:28:23.309Z,95196.88
2023-01-21T16:30:58.732Z,95201.72
2023-01-21T16:34:10.989Z,95197.56
2023-01-21T16:36:29.027Z,95191.19
2023-01-21T16:38:56.715Z,95189.69
2023-01-21T16:41:27.730Z,95195.25
2023-01-21T16:43:57.776Z,95193.44
2023-01-21T16:46:27.771Z,95189.97
2023-01-21T16:48:58.394Z,95195.97
2023-01-21T16:51:29.830Z,95200.97
2023-01-21T16:54:28.735Z,95200.31
2023-01-21T16:57:00.163Z,95205.59
2023-01-21T16:59:41.929Z,95207.34
2023-01-21T17:02:17.761Z,95210.06
2023-01-21T17:04:45.470Z,95215.88
2023-01-21T17:07:15.364Z,95214.72
2023-01-21T17:09:43.020Z,95223.25
2023-01-21T17:12:20.692Z,95221.81
2023-01-21T17:14:48.361Z,95212.16
2023-01-21T17:17:22.045Z,95223.25
2023-01-21T17:19:51.203Z,95226.06
2023-01-21T17:22:20.966Z,95222.19
2023-01-21T17:24:59.137Z,95227.19
2023-01-21T17:27:28.701Z,95234.22
2023-01-21T17:30:26.887Z,95233.19
2023-01-21T17:32:56.013Z,95233.53
2023-01-21T17:35:24.599Z,95232.22
2023-01-21T17:37:56.789Z,95239.28
2023-01-21T17:40:29.844Z,95231.06
2023-01-21T17:42:58.689Z,95231.50
2023-01-21T17:45:32.596Z,95234.78
2023-01-21T17:48:12.537Z,95246.88
2023-01-21T17:50:45.879Z,95244.50
2023-01-21T17:53:20.284Z,95243.88
2023-01-21T17:55:57.415Z,95247.53
2023-01-21T17:58:49.848Z,95251.50
2023-01-21T18:01:20.118Z,95242.16
2023-01-21T18:03:47.918Z,95248.81
2023-01-21T18:06:20.451Z,95244.34
2023-01-21T18:08:50.454Z,95253.78
2023-01-21T18:11:18.783Z,95258.97
2023-01-21T18:13:46.622Z,95248.22
2023-01-21T18:16:14.581Z,95249.56
2023-01-21T18:18:43.738Z,95251.59
2023-01-21T18:21:18.215Z,95259.19
2023-01-21T18:23:45.928Z,95258.66
2023-01-21T18:26:18.654Z,95261.53
2023-01-21T18:28:46.301Z,95254.50
2023-01-21T18:31:14.088Z,95260.81
2023-01-21T18:33:43.231Z,95262.44
2023-01-21T18:36:11.947Z,95262.75
2023-01-21T18:38:39.742Z,95258.53
2023-01-21T18:41:08.853Z,95261.66
2023-01-21T18:43:36.536Z,95260.03
2023-01-21T18:46:04.275Z,95261.53
2023-01-21T18:48:33.355Z,95253.44
2023-01-21T18:51:02.410Z,95267.66
2023-01-21T18:53:30.101Z,95261.38
2023-01-21T18:55:58.602Z,95261.69
2023-01-21T18:58:26.234Z,95269.72
2023-01-21T19:00:54.122Z,95273.41
2023-01-21T19:03:23.190Z,95264.56
2023-01-21T19:05:51.086Z,95268.69
2023-01-21T19:08:24.527Z,95269.78
2023-01-21T19:10:52.192Z,95272.34
2023-01-21T19:13:19.884Z,95269.69
2023-01-21T19:15:47.942Z,95265.44
2023-01-21T19:18:16.690Z,95260.41
2023-01-21T19:20:44.389Z,95269.50
2023-01-21T19:23:15.531Z,95265.88
2023-01-21T19:25:45.221Z,95272.03
2023-01-21T19:28:13.352Z,95273.72
2023-01-21T19:30:45.139Z,95264.81
2023-01-21T19:33:12.871Z,95272.72
2023-01-21T19:35:42.829Z,95271.44
2023-01-21T19:38:12.717Z,95279.72
2023-01-21T19:40:40.464Z,95272.91
2023-01-21T19:43:12.052Z,95266.31
2023-01-21T19:45:39.639Z,95269.63
2023-01-21T19:48:11.787Z,95265.97
2023-01-21T19:50:39.449Z,95273.94
2023-01-21T19:53:07.083Z,95274.69
2023-01-21T19:55:36.931Z,95278.41
2023-01-21T19:58:06.463Z,95284.06
2023-01-21T20:00:36.466Z,95278.66
2023-01-21T20:03:04.580Z,95277.41
2023-01-21T20:05:33.909Z,95280.88
2023-01-21T20:08:01.877Z,95278.81
2023-01-21T20:10:31.181Z,95280.72
2023-01-21T20:12:59.097Z,95277.56
2023-01-21T20:15:30.064Z,95282.38
2023-01-21T20:18:00.488Z,95285.56
2023-01-21T20:20:29.433Z,95278.63
2023-01-21T20:22:57.433Z,95283.09
2023-01-21T20:25:26.617Z,95291.91
2023-01-21T20:27:56.337Z,95290.44
2023-01-21T20:30:25.755Z,95287.09
2023-01-21T20:32:53.452Z,95290.44
2023-01-21T20:35:24.546Z,95286.94
2023-01-21T20:37:53.003Z,95292.31
2023-01-21T20:40:23.048Z,95282.50
2023-01-21T20:42:51.793Z,95291.16
2023-01-21T20:45:22.327Z,95287.50
2023-01-21T20:47:52.793Z,95293.97
2023-01-21T20:50:23.187Z,95292.47
2023-01-21T20:52:51.787Z,95298.47
2023-01-21T20:55:21.232Z,95284.31
2023-01-21T20:57:49.254Z,95293.75
2023-01-21T21:00:24.061Z,95293.69
2023-01-21T21:02:51.841Z,95284.72
2023-01-21T21:05:19.876Z,95283.75
2023-01-21T21:07:49.393Z,95282.44
2023-01-21T21:10:20.950Z,95288.28
2023-01-21T21:12:49.307Z,95288.78
2023-01-21T21:15:17.964Z,95280.28
2023-01-21T21:17:46.937Z,95280.13
2023-01-21T21:20:19.819Z,95284.31
2023-01-21T21:22:48.967Z,95278.13
2023-01-21T21:25:18.307Z,95279.16
2023-01-21T21:27:46.759Z,95273.88
2023-01-21T21:30:16.906Z,95282.84
2023-01-21T21:32:44.962Z,95278.19
2023-01-21T21:35:23.754Z,95287.88
2023-01-21T21:37:53.438Z,95286.34
2023-01-21T21:40:23.114Z,95283.53
2023-01-21T21:43:08.827Z,95286.91
2023-01-21T21:45:37.115Z,95281.56
2023-01-21T21:48:22.692Z,95281.56
2023-01-21T21:50:56.607Z,95286.91
2023-01-21T21:53:25.682Z,95284.31
2023-01-21T21:55:53.333Z,95289.81
2023-01-21T21:58:20.934Z,95293.47
2023-01-21T22:00:52.645Z,95284.16
2023-01-21T22:03:20.310Z,95286.13
2023-01-21T22:05:52.160Z,95287.19
2023-01-21T22:08:19.780Z,95293.06
2023-01-21T22:10:57.463Z,95283.56
2023-01-21T22:13:25.467Z,95277.09
2023-01-21T22:15:56.616Z,95279.31
2023-01-21T22:18:24.872Z,95287.31
2023-01-21T22:21:25.842Z,95280.66
2023-01-21T22:23:45.626Z,95278.50
2023-01-21T22:41:22.335Z,95265.16
2023-01-21T22:43:15.919Z,95277.63
2023-01-21T22:43:51.742Z,95267.47
2023-01-21T22:46:21.122Z,95274.84
2023-01-21T22:48:48.951Z,95267.22
2023-01-21T22:51:18.642Z,95261.44
2023-01-21T22:53:46.645Z,95270.94
2023-01-21T22:56:15.430Z,95272.56
2023-01-21T22:58:43.325Z,95261.56
2023-01-21T23:01:21.761Z,95266.56
2023-01-21T23:03:49.502Z,95263.56
2023-01-21T23:06:17.455Z,95279.56
2023-01-21T23:08:45.361Z,95268.09
2023-01-21T23:11:14.023Z,95263.09
2023-01-21T23:13:41.626Z,95259.06
2023-01-21T23:16:10.602Z,95263.88
2023-01-21T23:18:42.019Z,95266.72
2023-01-21T23:21:11.406Z,95267.16
2023-01-21T23:23:39.619Z,95263.31
2023-01-21T23:26:09.133Z,95260.34
2023-01-21T23:28:37.571Z,95257.38
2023-01-21T23:31:06.411Z,95260.56
2023-01-21T23:33:34.307Z,95264.25
2023-01-21T23:36:03.600Z,95267.59
2023-01-21T23:38:31.810Z,95255.78
2023-01-21T23:40:59.953Z,95254.47
2023-01-21T23:43:28.063Z,95254.97
2023-01-21T23:45:56.315Z,95257.00
2023-01-21T23:48:24.678Z,95254.53
2023-01-21T23:50:52.557Z,95263.06
2023-01-21T23:53:21.691Z,95269.09
2023-01-21T23:55:49.452Z,95268.22
2023-01-21T23:58:19.941Z,95260.06
